Time;durP1;ratioP1;P1;durP2;ratioP2;P2;SDS_P1;SDS_P2;PMS_P1;PMS_P2;Temp;Humidity;BMP_temperature;BMP_pressure;BME280_temperature;BME280_humidity;BME280_pressure;Samples;Min_cycle;Max_cycle;Signal;HPM_P1;HPM_P2
2021/12/04 00:02:26;;;;;;;7.83;5.40;;;4.10;99.90;;;;;;5096968;28;20197;-79
2021/12/04 00:04:55;;;;;;;6.87;4.97;;;4.00;99.90;;;;;;5114061;28;20207;-78
2021/12/04 00:07:23;;;;;;;10.57;6.40;;;4.10;99.90;;;;;;5096648;28;20222;-79
2021/12/04 00:09:51;;;;;;;7.93;5.20;;;4.10;99.90;;;;;;5097741;28;20207;-79
2021/12/04 00:12:19;;;;;;;9.07;5.83;;;4.00;99.90;;;;;;5098015;28;20722;-79
2021/12/04 00:14:46;;;;;;;10.00;6.13;;;4.10;99.90;;;;;;5094229;28;20205;-79
2021/12/04 00:17:14;;;;;;;8.50;5.10;;;4.10;99.90;;;;;;5105402;28;20212;-79
2021/12/04 00:19:41;;;;;;;7.10;5.17;;;4.10;99.90;;;;;;5093698;28;20273;-78
2021/12/04 00:22:09;;;;;;;8.60;5.37;;;4.10;99.90;;;;;;5096461;28;20193;-79
2021/12/04 00:24:36;;;;;;;9.93;5.60;;;4.10;99.90;;;;;;5093763;28;20205;-78
2021/12/04 00:27:04;;;;;;;8.03;5.50;;;4.10;99.90;;;;;;5104943;28;20205;-79
2021/12/04 00:29:30;;;;;;;7.90;5.13;;;4.10;99.90;;;;;;5111309;28;20722;-78
2021/12/04 00:32:02;;;;;;;9.33;5.43;;;4.10;99.90;;;;;;5101095;28;20269;-79
2021/12/04 00:34:32;;;;;;;8.87;5.33;;;4.10;99.90;;;;;;5111083;28;20197;-79
2021/12/04 00:50:42;;;;;;;7.87;5.30;;;4.10;99.90;;;;;;5093114;28;20224;-78
2021/12/04 00:53:09;;;;;;;9.47;6.07;;;4.10;99.90;;;;;;5093474;28;20206;-79
2021/12/04 00:55:36;;;;;;;7.83;5.27;;;4.10;99.90;;;;;;5094046;28;20678;-79
2021/12/04 00:58:04;;;;;;;8.20;5.40;;;4.10;99.90;;;;;;5107796;28;20195;-79
2021/12/04 01:00:31;;;;;;;9.40;5.10;;;4.20;99.90;;;;;;5102770;28;20198;-79
2021/12/04 01:02:57;;;;;;;7.50;5.53;;;4.20;99.90;;;;;;5112856;28;20201;-79
2021/12/04 01:05:24;;;;;;;7.10;5.13;;;4.10;99.90;;;;;;5112161;28;20566;-78
2021/12/04 01:07:53;;;;;;;6.87;4.97;;;4.10;99.90;;;;;;5104691;28;20213;-78
2021/12/04 01:10:19;;;;;;;6.53;5.07;;;4.10;99.90;;;;;;5103266;28;20194;-79
2021/12/04 01:12:49;;;;;;;6.87;4.93;;;4.10;99.90;;;;;;5102496;28;20206;-79
2021/12/04 01:15:16;;;;;;;8.07;5.13;;;4.10;99.90;;;;;;5100561;28;20280;-70
2021/12/04 01:17:43;;;;;;;8.27;5.60;;;4.10;99.90;;;;;;5103628;28;20189;-70
2021/12/04 01:20:11;;;;;;;7.90;4.80;;;4.10;99.90;;;;;;5092146;28;20205;-70
2021/12/04 01:22:39;;;;;;;8.63;5.73;;;4.10;99.90;;;;;;5101938;28;20291;-70
2021/12/04 01:25:09;;;;;;;11.73;5.57;;;4.10;99.90;;;;;;5108165;28;20198;-70
2021/12/04 01:27:37;;;;;;;8.93;5.67;;;4.10;99.90;;;;;;5111312;28;20201;-70
2021/12/04 01:30:05;;;;;;;8.70;5.73;;;4.10;99.90;;;;;;5112013;28;20198;-70
2021/12/04 01:32:32;;;;;;;8.33;5.70;;;4.10;99.90;;;;;;5099812;28;20575;-70
2021/12/04 01:34:59;;;;;;;7.93;5.57;;;4.10;99.90;;;;;;5115643;28;20201;-69
2021/12/04 01:37:26;;;;;;;7.97;5.67;;;4.10;99.90;;;;;;5108014;28;20205;-70
2021/12/04 01:39:53;;;;;;;11.93;5.83;;;4.10;99.90;;;;;;5103290;28;20201;-69
2021/12/04 01:42:21;;;;;;;10.20;6.00;;;4.10;99.90;;;;;;5108122;28;20204;-70
2021/12/04 01:44:49;;;;;;;7.53;5.70;;;4.00;99.90;;;;;;5104229;28;20197;-69
2021/12/04 01:47:19;;;;;;;7.60;5.53;;;4.00;99.90;;;;;;5106967;28;20562;-69
2021/12/04 01:49:48;;;;;;;8.63;5.83;;;4.00;99.90;;;;;;5096632;28;20225;-69
2021/12/04 01:52:17;;;;;;;9.77;5.77;;;4.00;99.90;;;;;;5096374;28;20287;-69
2021/12/04 01:54:44;;;;;;;9.50;5.77;;;4.00;99.90;;;;;;5095634;28;20202;-70
2021/12/04 01:57:13;;;;;;;7.87;5.50;;;3.90;99.90;;;;;;5100119;28;20205;-69
2021/12/04 01:59:42;;;;;;;7.70;5.70;;;4.00;99.90;;;;;;5096139;28;20707;-70
2021/12/04 02:02:09;;;;;;;9.23;6.00;;;4.00;99.90;;;;;;5106307;28;20201;-70
2021/12/04 02:04:36;;;;;;;9.53;5.77;;;3.90;99.90;;;;;;5116026;28;20197;-69
2021/12/04 02:07:04;;;;;;;8.73;5.93;;;3.90;99.90;;;;;;5104349;28;20216;-69
2021/12/04 02:09:32;;;;;;;11.27;6.53;;;3.90;99.90;;;;;;5106113;28;20311;-69
2021/12/04 02:11:59;;;;;;;10.37;6.53;;;3.90;99.90;;;;;;5115112;28;20666;-69
2021/12/04 02:14:26;;;;;;;11.73;6.23;;;3.80;99.90;;;;;;5104410;28;20208;-69
2021/12/04 02:16:54;;;;;;;10.97;6.07;;;3.90;99.90;;;;;;5101996;28;20663;-70
2021/12/04 02:19:21;;;;;;;13.87;7.03;;;3.90;99.90;;;;;;5114169;28;20557;-69
2021/12/04 02:21:49;;;;;;;10.20;6.33;;;3.90;99.90;;;;;;5113498;28;20283;-70
2021/12/04 02:24:16;;;;;;;10.03;6.27;;;3.90;99.90;;;;;;5115641;27;20211;-69
2021/12/04 02:26:43;;;;;;;9.10;5.70;;;3.90;99.90;;;;;;5103346;28;20204;-75
2021/12/04 02:29:10;;;;;;;8.70;5.80;;;3.80;99.90;;;;;;5102296;28;20220;-75
2021/12/04 02:31:38;;;;;;;8.80;5.43;;;3.80;99.90;;;;;;5097391;28;20218;-75
2021/12/04 02:34:06;;;;;;;8.73;5.47;;;3.90;99.90;;;;;;5111194;28;20197;-75
2021/12/04 02:36:33;;;;;;;9.30;5.90;;;3.90;99.90;;;;;;5096257;28;20648;-75
2021/12/04 02:39:02;;;;;;;8.17;5.70;;;3.90;99.90;;;;;;5101543;28;20306;-74
2021/12/04 02:41:29;;;;;;;8.53;5.50;;;3.90;99.90;;;;;;5094701;28;20200;-74
2021/12/04 02:43:56;;;;;;;9.53;5.90;;;3.90;99.90;;;;;;5095134;28;20205;-75
2021/12/04 02:46:22;;;;;;;9.80;6.07;;;3.90;99.90;;;;;;5095991;28;20470;-75
2021/12/04 02:48:49;;;;;;;10.70;6.77;;;3.90;99.90;;;;;;5106634;28;20239;-75
2021/12/04 02:51:18;;;;;;;8.97;6.17;;;3.90;99.90;;;;;;5095218;28;20625;-74
2021/12/04 02:53:45;;;;;;;9.40;6.27;;;3.90;99.90;;;;;;5113777;28;20563;-75
2021/12/04 02:56:14;;;;;;;10.97;6.33;;;3.90;99.90;;;;;;5097247;28;20208;-75
2021/12/04 02:58:44;;;;;;;11.10;6.40;;;3.90;99.90;;;;;;5110570;28;20193;-75
2021/12/04 03:01:11;;;;;;;9.47;6.70;;;3.90;99.90;;;;;;5097407;28;20232;-74
2021/12/04 03:03:38;;;;;;;12.63;6.97;;;3.90;99.90;;;;;;5104037;28;20202;-74
2021/12/04 03:06:05;;;;;;;11.17;6.27;;;3.90;99.90;;;;;;5099029;28;20204;-74
2021/12/04 03:08:32;;;;;;;9.63;6.30;;;3.90;99.90;;;;;;5113691;28;20404;-75
2021/12/04 03:10:59;;;;;;;8.60;6.30;;;3.90;99.90;;;;;;5109848;28;20311;-74
2021/12/04 03:13:27;;;;;;;9.27;6.23;;;3.90;99.90;;;;;;5099111;28;20687;-74
2021/12/04 03:15:59;;;;;;;11.40;6.77;;;3.90;99.90;;;;;;5098582;28;20276;-74
2021/12/04 03:18:26;;;;;;;9.13;6.37;;;4.00;99.90;;;;;;5097403;28;20644;-75
2021/12/04 03:20:55;;;;;;;8.77;6.00;;;4.00;99.90;;;;;;5093725;28;20206;-75
2021/12/04 03:23:28;;;;;;;10.27;6.20;;;3.90;99.90;;;;;;5094212;28;20288;-75
2021/12/04 03:25:57;;;;;;;10.30;6.20;;;3.90;99.90;;;;;;5094207;28;20745;-74
2021/12/04 03:28:25;;;;;;;9.13;6.60;;;3.90;99.90;;;;;;5102326;28;20571;-75
2021/12/04 03:30:57;;;;;;;8.00;6.20;;;3.90;99.90;;;;;;5102280;28;20563;-74
2021/12/04 03:41:37;;;;;;;9.20;6.03;;;3.90;99.90;;;;;;5108529;28;20232;-75
2021/12/04 03:44:04;;;;;;;7.67;5.43;;;3.90;99.90;;;;;;5114051;28;20493;-75
2021/12/04 03:46:32;;;;;;;10.87;6.33;;;3.90;99.90;;;;;;5112086;28;20197;-74
2021/12/04 03:48:59;;;;;;;9.10;5.30;;;3.90;99.90;;;;;;5107980;28;20220;-75
2021/12/04 03:51:26;;;;;;;8.17;5.80;;;3.90;99.90;;;;;;5112517;28;20193;-75
2021/12/04 03:53:53;;;;;;;8.87;5.27;;;3.90;99.90;;;;;;5112012;28;20208;-74
2021/12/04 03:56:23;;;;;;;7.90;5.97;;;3.90;99.90;;;;;;5109417;28;20197;-74
2021/12/04 03:58:50;;;;;;;8.10;5.77;;;3.90;99.90;;;;;;5114006;28;20232;-74
2021/12/04 04:01:17;;;;;;;11.67;6.07;;;3.90;99.90;;;;;;5093173;28;20582;-74
2021/12/04 04:03:45;;;;;;;9.73;5.90;;;3.90;99.90;;;;;;5101538;28;20268;-74
2021/12/04 04:06:12;;;;;;;9.23;5.80;;;3.90;99.90;;;;;;5109560;28;20232;-75
2021/12/04 04:08:39;;;;;;;7.97;5.40;;;3.90;99.90;;;;;;5106958;28;20229;-74
2021/12/04 04:11:06;;;;;;;9.03;5.90;;;3.90;99.90;;;;;;5109469;28;20196;-75
2021/12/04 04:13:33;;;;;;;8.43;5.50;;;3.90;99.90;;;;;;5108902;28;20244;-75
2021/12/04 04:16:01;;;;;;;7.30;5.07;;;3.90;99.90;;;;;;5112980;28;20680;-75
2021/12/04 04:18:30;;;;;;;8.30;5.50;;;3.90;99.90;;;;;;5101522;28;20735;-75
2021/12/04 04:20:59;;;;;;;8.90;5.73;;;3.90;99.90;;;;;;5097836;28;20229;-75
2021/12/04 04:23:26;;;;;;;7.93;5.50;;;3.90;99.90;;;;;;5097570;28;20217;-75
2021/12/04 04:25:53;;;;;;;7.43;5.57;;;3.80;99.90;;;;;;5092248;28;20200;-75
2021/12/04 04:28:21;;;;;;;6.70;4.83;;;3.80;99.90;;;;;;5092198;28;20198;-75
2021/12/04 04:30:48;;;;;;;10.57;6.07;;;3.80;99.90;;;;;;5091934;28;20197;-75
2021/12/04 04:33:15;;;;;;;8.57;5.37;;;3.80;99.90;;;;;;5092406;28;20210;-74
2021/12/04 04:35:43;;;;;;;9.97;5.67;;;3.90;99.90;;;;;;5091703;28;20620;-74
2021/12/04 04:38:26;;;;;;;9.00;5.93;;;3.90;99.90;;;;;;5092368;28;20214;-75
2021/12/04 05:11:20;;;;;;;6.20;4.70;;;3.80;99.90;;;;;;5099289;28;20209;-75
2021/12/04 05:13:47;;;;;;;7.70;5.67;;;3.70;99.90;;;;;;5092148;28;20193;-75
2021/12/04 05:16:15;;;;;;;7.63;5.60;;;3.70;99.90;;;;;;5091253;28;20213;-75
2021/12/04 05:18:54;;;;;;;8.27;5.90;;;3.60;99.90;;;;;;5091310;28;20233;-74
2021/12/04 05:21:21;;;;;;;8.40;6.13;;;3.60;99.90;;;;;;5091409;28;20262;-74
2021/12/04 05:23:51;;;;;;;7.33;5.70;;;3.60;99.90;;;;;;5092114;28;20200;-74
2021/12/04 05:26:24;;;;;;;7.83;6.00;;;3.60;99.90;;;;;;5091055;28;20288;-74
2021/12/04 05:28:51;;;;;;;7.60;6.20;;;3.60;99.90;;;;;;5091475;28;20193;-74
2021/12/04 05:31:18;;;;;;;11.97;6.93;;;3.50;99.90;;;;;;5091578;28;20656;-75
2021/12/04 05:33:46;;;;;;;8.73;6.40;;;3.60;99.90;;;;;;5091922;28;20233;-75
2021/12/04 05:36:12;;;;;;;7.57;6.17;;;3.60;99.90;;;;;;5091261;28;20670;-74
2021/12/04 05:38:39;;;;;;;8.10;6.10;;;3.60;99.90;;;;;;5091109;28;20201;-75
2021/12/04 05:41:07;;;;;;;9.93;6.50;;;3.60;99.90;;;;;;5090389;28;20198;-75
2021/12/04 05:43:36;;;;;;;10.03;6.30;;;3.60;99.90;;;;;;5091678;28;20193;-75
2021/12/04 05:46:11;;;;;;;8.93;6.37;;;3.60;99.90;;;;;;5091488;28;20605;-75
2021/12/04 05:48:44;;;;;;;8.77;6.23;;;3.70;99.90;;;;;;5091176;28;20197;-75
2021/12/04 05:51:32;;;;;;;10.80;7.20;;;3.60;99.90;;;;;;5098887;28;20603;-78
2021/12/04 05:54:03;;;;;;;9.67;6.37;;;3.60;99.90;;;;;;5095752;28;20474;-79
2021/12/04 05:56:32;;;;;;;10.37;6.90;;;3.60;99.90;;;;;;5103309;28;20219;-79
2021/12/04 05:59:01;;;;;;;10.93;6.73;;;3.60;99.90;;;;;;5092949;28;20212;-78
2021/12/04 06:01:30;;;;;;;10.97;6.97;;;3.60;99.90;;;;;;5096136;28;20201;-79
2021/12/04 06:03:57;;;;;;;10.53;6.97;;;3.60;99.90;;;;;;5095320;28;20665;-79
2021/12/04 06:06:24;;;;;;;8.93;6.23;;;3.60;99.90;;;;;;5110698;28;20212;-79
2021/12/04 06:08:51;;;;;;;10.20;6.67;;;3.60;99.90;;;;;;5105991;28;20533;-78
2021/12/04 06:11:18;;;;;;;11.80;7.23;;;3.60;99.90;;;;;;5109119;28;20201;-79
2021/12/04 06:13:46;;;;;;;11.43;6.77;;;3.60;99.90;;;;;;5111598;28;20210;-79
2021/12/04 06:16:15;;;;;;;10.70;7.20;;;3.60;99.90;;;;;;5108145;28;20588;-79
2021/12/04 06:18:45;;;;;;;12.37;7.07;;;3.60;99.90;;;;;;5094820;28;20248;-79
2021/12/04 06:23:58;;;;;;;10.00;6.53;;;3.60;99.90;;;;;;5102027;28;20329;-80
2021/12/04 06:26:26;;;;;;;10.70;7.13;;;3.60;99.90;;;;;;5107837;28;20210;-78
2021/12/04 06:28:53;;;;;;;12.87;7.73;;;3.70;99.90;;;;;;5093424;28;20670;-79
2021/12/04 06:31:21;;;;;;;13.63;8.00;;;3.60;99.90;;;;;;5099208;28;20562;-79
2021/12/04 06:33:49;;;;;;;10.27;6.93;;;3.70;99.90;;;;;;5109711;28;20201;-80
2021/12/04 06:36:16;;;;;;;8.53;6.53;;;3.70;99.90;;;;;;5113671;28;20201;-79
2021/12/04 06:38:44;;;;;;;8.77;6.63;;;3.60;99.90;;;;;;5100794;28;20202;-79
2021/12/04 06:41:11;;;;;;;9.63;6.73;;;3.70;99.90;;;;;;5094072;28;20229;-79
2021/12/04 06:43:44;;;;;;;14.77;7.40;;;3.70;99.90;;;;;;5115170;28;20204;-79
2021/12/04 06:46:11;;;;;;;11.07;7.20;;;3.70;99.90;;;;;;5114471;28;20679;-79
2021/12/04 06:48:43;;;;;;;10.63;7.23;;;3.70;99.90;;;;;;5100034;28;20212;-79
2021/12/04 06:51:23;;;;;;;13.53;8.13;;;3.60;99.90;;;;;;5105416;28;20236;-79
2021/12/04 06:53:56;;;;;;;9.87;7.03;;;3.70;99.90;;;;;;5094556;28;20287;-79
2021/12/04 06:56:24;;;;;;;9.93;7.30;;;3.70;99.90;;;;;;5092829;28;20213;-80
2021/12/04 06:58:53;;;;;;;11.27;7.83;;;3.70;99.90;;;;;;5107472;28;20206;-79
2021/12/04 07:01:20;;;;;;;13.50;7.87;;;3.70;99.90;;;;;;5102338;28;20194;-80
2021/12/04 07:03:49;;;;;;;13.30;8.70;;;3.70;99.90;;;;;;5097660;28;20210;-79
2021/12/04 07:06:16;;;;;;;12.17;8.57;;;3.70;99.90;;;;;;5095604;28;20245;-79
2021/12/04 07:08:43;;;;;;;13.10;8.53;;;3.80;99.90;;;;;;5098223;28;20197;-80
2021/12/04 07:11:10;;;;;;;12.17;8.37;;;3.80;99.90;;;;;;5112913;28;20225;-79
2021/12/04 07:13:37;;;;;;;11.60;8.23;;;3.80;99.90;;;;;;5095114;28;20648;-79
2021/12/04 07:16:06;;;;;;;14.73;9.23;;;3.70;99.90;;;;;;5093571;28;20198;-80
2021/12/04 07:18:38;;;;;;;14.23;8.30;;;3.80;99.90;;;;;;5099656;28;20214;-79
2021/12/04 07:21:06;;;;;;;13.47;8.80;;;3.80;99.90;;;;;;5097733;28;20197;-79
2021/12/04 07:23:33;;;;;;;13.80;8.87;;;3.80;99.90;;;;;;5106558;28;20658;-79
2021/12/04 07:26:01;;;;;;;14.57;9.33;;;3.80;99.90;;;;;;5098530;28;20213;-80
2021/12/04 07:28:28;;;;;;;13.70;9.47;;;3.80;99.90;;;;;;5110961;28;20208;-79
2021/12/04 07:30:55;;;;;;;12.60;8.93;;;3.80;99.90;;;;;;5102562;28;20307;-79
2021/12/04 07:33:22;;;;;;;14.43;8.57;;;3.80;99.90;;;;;;5111446;28;20216;-79
2021/12/04 07:35:50;;;;;;;12.93;9.33;;;3.80;99.90;;;;;;5110259;28;20655;-79
2021/12/04 07:38:19;;;;;;;14.07;9.23;;;3.80;99.90;;;;;;5103726;28;20204;-79
2021/12/04 07:40:46;;;;;;;13.17;8.87;;;3.90;99.90;;;;;;5102280;28;20197;-79
2021/12/04 07:43:13;;;;;;;15.20;8.87;;;3.80;99.90;;;;;;5103249;28;20197;-79
2021/12/04 07:45:40;;;;;;;12.67;8.57;;;3.80;99.90;;;;;;5110176;28;20205;-79
2021/12/04 07:48:08;;;;;;;12.93;8.17;;;3.90;99.90;;;;;;5102531;28;20229;-79
2021/12/04 07:50:36;;;;;;;14.87;8.60;;;3.80;99.90;;;;;;5108751;28;20229;-79
2021/12/04 07:53:03;;;;;;;11.67;8.37;;;3.80;99.90;;;;;;5102416;28;20572;-80
2021/12/04 07:55:33;;;;;;;13.53;8.47;;;3.80;99.90;;;;;;5105908;27;20428;-79
2021/12/04 07:58:00;;;;;;;14.03;8.50;;;3.80;99.90;;;;;;5102523;28;20193;-81
2021/12/04 08:00:28;;;;;;;11.00;7.13;;;3.90;99.90;;;;;;5108747;28;20197;-80
2021/12/04 08:02:55;;;;;;;10.60;7.77;;;3.80;99.90;;;;;;5103246;28;20201;-79
2021/12/04 08:05:22;;;;;;;12.57;7.97;;;3.80;99.90;;;;;;5102429;28;20666;-79
2021/12/04 08:07:50;;;;;;;11.47;7.57;;;3.90;99.90;;;;;;5104325;28;20197;-78
2021/12/04 08:10:19;;;;;;;11.43;7.53;;;3.90;99.90;;;;;;5101291;28;20302;-79
2021/12/04 08:12:48;;;;;;;11.20;7.93;;;3.90;99.90;;;;;;5101008;28;20204;-79
2021/12/04 08:15:17;;;;;;;10.90;7.50;;;3.90;99.90;;;;;;5105936;28;20233;-79
2021/12/04 08:17:45;;;;;;;9.97;6.63;;;4.00;99.90;;;;;;5107811;28;20201;-79
2021/12/04 08:20:14;;;;;;;9.43;7.07;;;3.90;99.90;;;;;;5101133;28;20205;-79
2021/12/04 08:22:41;;;;;;;10.43;6.90;;;3.90;99.90;;;;;;5103681;28;20201;-79
2021/12/04 08:25:10;;;;;;;9.60;6.97;;;4.00;99.90;;;;;;5100828;28;20288;-79
2021/12/04 08:27:38;;;;;;;11.67;7.20;;;4.00;99.90;;;;;;5109681;28;20209;-79
2021/12/04 08:30:10;;;;;;;9.67;6.90;;;4.00;99.90;;;;;;5107275;28;20251;-79
2021/12/04 08:32:37;;;;;;;9.87;6.70;;;4.10;99.90;;;;;;5108681;28;20204;-79
2021/12/04 08:35:05;;;;;;;9.07;6.70;;;3.90;99.90;;;;;;5105215;28;20200;-79
2021/12/04 08:37:32;;;;;;;15.10;6.90;;;4.00;99.90;;;;;;5102038;28;20209;-79
2021/12/04 08:39:59;;;;;;;9.70;6.80;;;4.00;99.90;;;;;;5112242;28;20571;-79
2021/12/04 08:42:27;;;;;;;11.57;7.10;;;4.10;99.90;;;;;;5112826;28;20212;-80
2021/12/04 08:44:54;;;;;;;9.47;6.37;;;4.10;99.90;;;;;;5091773;28;20202;-80
2021/12/04 08:47:23;;;;;;;10.97;7.37;;;4.10;99.90;;;;;;5102108;28;20200;-79
2021/12/04 08:49:50;;;;;;;11.37;7.47;;;4.10;99.90;;;;;;5092321;28;20197;-79
2021/12/04 08:52:18;;;;;;;12.93;7.17;;;4.10;99.90;;;;;;5099688;28;20249;-80
2021/12/04 08:54:46;;;;;;;10.50;7.13;;;4.10;99.90;;;;;;5095845;28;20201;-79
2021/12/04 08:57:14;;;;;;;11.37;7.20;;;4.10;99.90;;;;;;5091896;28;20206;-79
2021/12/04 08:59:41;;;;;;;9.30;6.70;;;4.20;99.90;;;;;;5092261;28;20197;-79
2021/12/04 09:02:09;;;;;;;10.83;6.50;;;4.20;99.90;;;;;;5097975;28;20267;-80
2021/12/04 09:04:39;;;;;;;11.00;6.80;;;4.10;99.90;;;;;;5098470;28;20259;-79
2021/12/04 09:07:07;;;;;;;11.27;7.13;;;4.20;99.90;;;;;;5093753;28;20614;-79
2021/12/04 09:09:35;;;;;;;9.57;6.77;;;4.20;99.90;;;;;;5090747;28;20201;-79
2021/12/04 09:12:06;;;;;;;11.20;7.80;;;4.30;99.90;;;;;;5098851;28;20550;-79
2021/12/04 09:14:37;;;;;;;8.77;6.87;;;4.40;99.90;;;;;;5112507;28;20208;-78
2021/12/04 09:17:06;;;;;;;10.73;7.13;;;4.50;99.90;;;;;;5102759;28;20201;-79
2021/12/04 09:19:35;;;;;;;9.87;6.90;;;4.40;99.90;;;;;;5091402;28;20205;-75
2021/12/04 09:22:06;;;;;;;9.03;7.07;;;4.40;99.90;;;;;;5091977;28;20197;-79
2021/12/04 09:24:39;;;;;;;10.00;6.70;;;4.40;99.90;;;;;;5092112;28;20639;-79
2021/12/04 09:27:13;;;;;;;11.73;7.13;;;4.50;99.90;;;;;;5092567;28;20631;-79
2021/12/04 09:29:54;;;;;;;11.33;7.30;;;4.90;99.90;;;;;;5090304;28;20205;-79
2021/12/04 10:14:15;;;;;;;15.13;9.03;;;5.10;99.90;;;;;;5098762;28;20200;-79
2021/12/04 10:22:31;;;;;;;13.93;8.80;;;5.30;99.90;;;;;;5068836;27;20997;-80
2021/12/04 10:33:19;;;;;;;11.10;6.90;;;5.30;99.90;;;;;;5246243;22;20250;-70
2021/12/04 10:35:48;;;;;;;10.93;7.57;;;5.40;99.90;;;;;;5146035;27;20199;-70
2021/12/04 10:38:20;;;;;;;11.27;7.63;;;5.40;99.90;;;;;;5143010;27;20208;-70
2021/12/04 10:40:49;;;;;;;11.97;6.77;;;5.50;99.90;;;;;;5155839;27;20764;-70
2021/12/04 10:43:22;;;;;;;9.20;6.57;;;5.60;99.90;;;;;;5148424;27;20569;-70
2021/12/04 10:45:53;;;;;;;10.00;6.57;;;5.50;99.90;;;;;;5136830;27;20207;-70
2021/12/04 10:48:23;;;;;;;8.30;6.00;;;5.60;99.90;;;;;;5139809;27;20212;-70
2021/12/04 10:50:58;;;;;;;7.63;6.23;;;5.30;99.90;;;;;;5144009;27;20204;-70
2021/12/04 10:53:30;;;;;;;8.43;6.40;;;5.40;99.90;;;;;;5140556;27;20660;-70
2021/12/04 10:56:08;;;;;;;9.63;6.17;;;5.30;99.90;;;;;;5134892;27;20211;-70
2021/12/04 11:01:33;;;;;;;9.87;6.07;;;5.30;99.90;;;;;;5140048;27;20712;-70
2021/12/04 11:04:06;;;;;;;9.60;6.07;;;5.10;99.90;;;;;;5141079;27;20207;-70
2021/12/04 11:07:07;;;;;;;9.87;6.63;;;5.30;99.90;;;;;;5141267;27;20205;-70
2021/12/04 11:43:10;;;;;;;5.17;3.80;;;5.70;99.90;;;;;;5019267;28;20878;-76
2021/12/04 11:45:45;;;;;;;4.77;3.70;;;5.40;99.90;;;;;;5083530;27;20211;-76
2021/12/04 11:48:13;;;;;;;5.53;3.70;;;5.60;99.90;;;;;;5128805;27;20216;-76
2021/12/04 11:50:42;;;;;;;3.83;3.37;;;5.70;99.90;;;;;;5125093;27;20197;-76
2021/12/04 11:53:15;;;;;;;4.27;3.37;;;5.70;99.90;;;;;;5128973;27;20192;-76
2021/12/04 11:55:44;;;;;;;3.87;3.13;;;5.80;99.90;;;;;;5127580;27;20654;-76
2021/12/04 11:58:21;;;;;;;4.70;3.17;;;5.70;99.90;;;;;;5126667;27;20204;-76
2021/12/04 12:00:49;;;;;;;3.90;3.27;;;5.90;99.90;;;;;;5130020;27;20221;-76
2021/12/04 12:03:18;;;;;;;4.00;3.20;;;5.70;99.90;;;;;;5128993;27;20223;-76
2021/12/04 12:05:47;;;;;;;4.20;3.10;;;5.70;99.90;;;;;;5124807;27;20211;-76
2021/12/04 12:08:26;;;;;;;3.60;3.10;;;5.50;99.90;;;;;;5126526;27;20215;-77
2021/12/04 12:10:57;;;;;;;5.07;3.57;;;5.60;99.90;;;;;;5132830;27;20570;-76
2021/12/04 12:13:28;;;;;;;4.23;3.40;;;5.50;99.90;;;;;;5124995;27;20196;-76
2021/12/04 12:16:09;;;;;;;6.30;3.80;;;5.60;99.90;;;;;;5122817;27;20196;-74
2021/12/04 12:18:50;;;;;;;4.37;3.60;;;5.60;99.90;;;;;;5129052;27;20247;-74
2021/12/04 12:21:21;;;;;;;4.70;3.60;;;5.50;99.90;;;;;;5124078;27;20220;-74
2021/12/04 12:26:49;;;;;;;4.80;3.47;;;5.90;99.90;;;;;;5128715;27;20322;-74
2021/12/04 12:32:37;;;;;;;4.40;3.40;;;5.80;99.90;;;;;;5126282;27;20211;-74
2021/12/04 12:37:50;;;;;;;4.97;3.47;;;5.70;99.90;;;;;;5127282;27;20578;-74
2021/12/04 12:40:19;;;;;;;6.33;4.03;;;5.80;99.90;;;;;;5129335;27;20197;-74
2021/12/04 12:42:47;;;;;;;7.33;4.60;;;5.60;99.90;;;;;;5128702;27;20586;-74
2021/12/04 12:45:20;;;;;;;5.90;3.90;;;5.80;99.90;;;;;;5125309;27;20208;-74
2021/12/04 12:47:49;;;;;;;4.67;3.57;;;5.90;99.90;;;;;;5131232;27;20197;-74
2021/12/04 12:50:27;;;;;;;5.23;3.73;;;5.90;99.90;;;;;;5123591;27;20200;-73
2021/12/04 12:53:02;;;;;;;5.17;3.87;;;6.00;99.90;;;;;;5127037;27;20657;-74
2021/12/04 12:55:34;;;;;;;4.23;3.67;;;5.70;99.90;;;;;;5126637;27;20209;-76
2021/12/04 12:58:17;;;;;;;3.70;3.30;;;5.70;99.90;;;;;;5132012;27;20715;-73
2021/12/04 13:12:01;;;;;;;6.30;3.97;;;5.40;99.90;;;;;;5132003;27;20691;-74
2021/12/04 13:14:32;;;;;;;32.60;21.17;;;5.40;99.90;;;;;;5129901;27;20200;-74
2021/12/04 13:17:07;;;;;;;5.53;4.17;;;5.60;99.90;;;;;;5122504;27;20207;-74
2021/12/04 13:19:36;;;;;;;5.43;4.07;;;5.60;99.90;;;;;;5130618;27;20204;-74
2021/12/04 13:22:06;;;;;;;4.63;3.90;;;5.60;99.90;;;;;;5117783;27;20228;-74
2021/12/04 13:24:35;;;;;;;4.10;3.70;;;5.50;99.90;;;;;;5131066;27;20716;-74
2021/12/04 13:29:42;;;;;;;5.40;4.03;;;5.50;99.90;;;;;;5130094;27;20210;-74
2021/12/04 13:32:13;;;;;;;5.27;3.83;;;5.40;99.90;;;;;;5125132;27;20651;-74
2021/12/04 13:34:42;;;;;;;5.27;4.00;;;5.50;99.90;;;;;;5127338;27;20207;-74
2021/12/04 13:37:10;;;;;;;5.20;4.33;;;5.30;99.90;;;;;;5123174;27;20265;-74
2021/12/04 13:39:40;;;;;;;6.20;4.37;;;5.40;99.90;;;;;;5126134;27;20205;-84
2021/12/04 13:42:08;;;;;;;5.73;4.27;;;5.40;99.90;;;;;;5127273;27;20227;-71
2021/12/04 13:44:36;;;;;;;6.13;4.27;;;5.40;99.90;;;;;;5125709;27;20291;-73
2021/12/04 13:47:05;;;;;;;5.47;4.43;;;5.30;99.90;;;;;;5125816;27;20203;-73
2021/12/04 13:49:37;;;;;;;5.23;4.00;;;5.30;99.90;;;;;;5123758;27;20291;-74
2021/12/04 13:52:08;;;;;;;5.53;4.13;;;5.30;99.90;;;;;;5125465;27;20200;-73
2021/12/04 13:54:38;;;;;;;5.30;3.67;;;5.30;99.90;;;;;;5130766;27;20201;-73
2021/12/04 13:57:09;;;;;;;5.70;3.63;;;5.20;99.90;;;;;;5127138;27;20193;-74
2021/12/04 13:59:36;;;;;;;6.17;3.80;;;5.20;99.90;;;;;;5128002;27;20613;-74
2021/12/04 14:02:03;;;;;;;4.87;3.70;;;5.20;99.90;;;;;;5120775;27;20263;-74
2021/12/04 14:04:30;;;;;;;5.60;3.70;;;5.20;99.90;;;;;;5117662;27;20599;-74
2021/12/04 14:07:00;;;;;;;3.87;3.47;;;5.30;99.90;;;;;;5126989;27;20242;-74
2021/12/04 14:09:34;;;;;;;4.37;3.90;;;5.30;99.90;;;;;;5118869;27;20204;-74
2021/12/04 14:12:02;;;;;;;5.27;4.10;;;5.30;99.90;;;;;;5120447;27;20650;-74
2021/12/04 14:14:32;;;;;;;5.40;4.23;;;5.30;99.90;;;;;;5123042;27;20707;-74
2021/12/04 14:17:06;;;;;;;4.60;3.87;;;5.20;99.90;;;;;;5120419;27;20208;-74
2021/12/04 14:19:33;;;;;;;6.13;4.77;;;5.20;99.90;;;;;;5123040;28;20319;-74
2021/12/04 14:22:04;;;;;;;5.83;4.43;;;5.20;99.90;;;;;;5119766;28;20216;-72
2021/12/04 14:24:34;;;;;;;5.27;4.10;;;5.20;99.90;;;;;;5124286;28;20215;-74
2021/12/04 14:27:04;;;;;;;5.53;4.30;;;5.20;99.90;;;;;;5126856;28;20207;-74
2021/12/04 14:29:36;;;;;;;7.13;4.30;;;5.20;99.90;;;;;;5125262;27;20571;-74
2021/12/04 14:32:03;;;;;;;5.23;4.40;;;5.10;99.90;;;;;;5117481;28;20193;-74
2021/12/04 14:34:30;;;;;;;5.87;4.37;;;5.10;99.90;;;;;;5124154;28;20201;-74
2021/12/04 14:37:05;;;;;;;5.73;4.17;;;5.10;99.90;;;;;;5125383;27;20390;-74
2021/12/04 14:39:32;;;;;;;5.63;4.27;;;5.00;99.90;;;;;;5126561;28;20239;-74
2021/12/04 14:41:59;;;;;;;8.53;5.13;;;5.00;99.90;;;;;;5121793;28;20750;-73
2021/12/04 14:44:26;;;;;;;7.10;4.30;;;5.00;99.90;;;;;;5120370;27;20557;-74
2021/12/04 14:46:53;;;;;;;7.47;3.97;;;5.00;99.90;;;;;;5125831;28;20228;-73
2021/12/04 14:49:21;;;;;;;5.07;3.97;;;5.00;99.90;;;;;;5127595;27;20287;-73
2021/12/04 14:51:48;;;;;;;4.90;3.70;;;4.90;99.90;;;;;;5122389;27;20604;-73
2021/12/04 14:54:27;;;;;;;5.77;4.20;;;4.90;99.90;;;;;;5117804;28;20205;-73
2021/12/04 14:56:54;;;;;;;6.43;4.63;;;4.90;99.90;;;;;;5118273;27;20239;-73
2021/12/04 14:59:21;;;;;;;5.37;3.70;;;4.90;99.90;;;;;;5126491;28;20681;-73
2021/12/04 15:01:48;;;;;;;5.43;4.30;;;4.90;99.90;;;;;;5120989;28;20224;-73
2021/12/04 15:04:15;;;;;;;6.30;4.30;;;4.90;99.90;;;;;;5121588;28;20230;-73
2021/12/04 15:06:43;;;;;;;5.27;4.30;;;4.80;99.90;;;;;;5124398;27;20215;-73
2021/12/04 15:09:14;;;;;;;5.03;4.23;;;4.80;99.90;;;;;;5126959;27;20699;-73
2021/12/04 15:11:45;;;;;;;5.63;4.30;;;4.80;99.90;;;;;;5120915;27;20203;-73
2021/12/04 15:14:19;;;;;;;5.03;4.23;;;4.70;99.90;;;;;;5127704;27;20298;-73
2021/12/04 15:16:49;;;;;;;7.23;5.07;;;4.70;99.90;;;;;;5125484;27;20208;-73
2021/12/04 15:19:20;;;;;;;6.90;4.60;;;4.70;99.90;;;;;;5131860;27;20646;-73
2021/12/04 15:21:52;;;;;;;6.97;4.97;;;4.70;99.90;;;;;;5130591;27;20224;-74
2021/12/04 15:24:23;;;;;;;5.80;4.57;;;4.80;99.90;;;;;;5130988;27;20662;-73
2021/12/04 15:26:54;;;;;;;5.80;4.40;;;4.80;99.90;;;;;;5124961;27;20200;-74
2021/12/04 15:29:24;;;;;;;6.73;4.53;;;4.70;99.90;;;;;;5126976;27;20204;-73
2021/12/04 15:31:52;;;;;;;6.83;4.47;;;4.70;99.90;;;;;;5124136;27;20196;-74
2021/12/04 15:34:30;;;;;;;5.27;4.40;;;4.70;99.90;;;;;;5127093;27;20205;-74
2021/12/04 15:37:02;;;;;;;8.97;5.43;;;4.70;99.90;;;;;;5121898;27;20236;-73
2021/12/04 15:39:32;;;;;;;6.77;4.80;;;4.70;99.90;;;;;;5129645;27;20205;-73
2021/12/04 15:42:16;;;;;;;5.80;4.30;;;4.80;99.90;;;;;;5121147;27;20244;-73
2021/12/04 15:47:35;;;;;;;5.63;4.60;;;4.70;99.90;;;;;;5120803;27;20286;-73
2021/12/04 15:53:04;;;;;;;5.57;4.50;;;4.80;99.90;;;;;;5117875;27;20196;-73
2021/12/04 15:55:35;;;;;;;5.73;4.63;;;4.80;99.90;;;;;;5128385;27;20215;-74
2021/12/04 15:58:09;;;;;;;5.67;4.40;;;4.70;99.90;;;;;;5127294;27;20221;-73
2021/12/04 16:00:39;;;;;;;4.83;4.17;;;4.70;99.90;;;;;;5127197;27;20725;-73